Terminal Aerodrome Forecast
Issued by NWS Charleston, WV

Current Version | Previous Version | Text Only | Print | Product List | Glossary Off
Versions: 1 2 3 4 5 6 7 8 9 10 11 12 13 14 15 16 17 18 19 20 21 22

000
FTUS41 KRLX 310848 AAA
TAFEKN
TAF AMD
KEKN 310848Z 3109/0106 00000KT 6SM BR SCT002 BKN120
     FM311100 VRB03KT 6SM BR BKN050
     FM311300 VRB03KT P6SM BKN045
     FM010400 00000KT P6SM SCT070=

USA.gov is the U.S. government's official web portal to all federal, state and local government web resources and services.